Oriental Freesia — ZGCD7 — position and weather

sailwx.info

Track history (hours):
 
Tides and Currents Weather Stations Pressure Air Temp Water Temp Dewpoint Dewpoint Depression Visibility Wind Speed Wind Dir Waves Ship Positions

Oriental Freesia

Last reported at 2014-Nov-01 01:13 UTC. Time now 2014-Nov-01 14:05 UTC.
Position N 50°26' W 000°29'.

Length 134 m; draft 6.9 m.

Type: Ship (hazmat cat A). MMSI: 319349000.

Date/timePositionNaut miles runAvg speedWind from/ knotsBaromVisibWave heightAir tempDewpointWater temp
2014-Nov-01 01:13N 50°26' W 000°29'3111.5
2014-Oct-31 22:33N 50°34' E 000°17'1312.7
2014-Oct-31 21:33N 50°38' E 000°36'1212.3
2014-Oct-31 20:33N 50°45' E 000°52'1211.7
2014-Oct-31 19:33N 50°53' E 001°06'1110.9
2014-Oct-31 18:33N 50°60' E 001°19'1010.1
2014-Oct-31 17:33N 51°06' E 001°31'10 9.9
2014-Oct-31 16:33N 51°13' E 001°44'1111.2
2014-Oct-31 15:33N 51°22' E 001°53'1312.6
2014-Oct-31 14:33N 51°32' E 002°06'1413.5
2014-Oct-31 13:34N 51°42' E 002°21'1413.5
2014-Oct-31 12:33N 51°52' E 002°36'1312.9
2014-Oct-31 11:33N 52°01' E 002°50'1412.3
2014-Oct-31 10:27N 52°04' E 003°12'1011.6
2014-Oct-31 09:33N 52°04' E 003°29'1110.6
2014-Oct-31 08:31N 52°04' E 003°47'8 8.4
2014-Oct-31 07:33N 52°01' E 003°59'9 8.7
2014-Oct-31 06:34N 51°57' E 004°11'5 5.2
2014-Oct-31 05:33N 51°53' E 004°17'0 0.0
2014-Oct-30 23:25N 51°53' E 004°17'0 0.0
2014-Oct-30 22:28N 51°53' E 004°17'0 0.0
2014-Oct-30 13:07N 51°53' E 004°17'0 0.0
2014-Oct-30 10:16N 51°53' E 004°17'0 0.0
2014-Oct-30 08:31N 51°53' E 004°17'0 0.0
2014-Oct-29 19:16N 51°53' E 004°17'0 0.0
2014-Oct-29 18:28N 51°53' E 004°17'0 0.0
2014-Oct-29 11:28N 51°53' E 004°17'0 0.0
2014-Oct-29 10:28N 51°53' E 004°17'0 0.0
2014-Oct-29 09:28N 51°53' E 004°17'0 0.0
2014-Oct-29 08:31N 51°53' E 004°17'0 0.0
2014-Oct-29 07:31N 51°53' E 004°17'0 0.0
2014-Oct-29 01:19N 51°53' E 004°17'0 0.0
2014-Oct-28 23:07N 51°53' E 004°17'0 0.0
2014-Oct-28 16:31N 51°53' E 004°17'0 0.0
2014-Oct-28 13:31N 51°53' E 004°17'1 1.0
2014-Oct-28 12:24N 51°52' E 004°16'0 0.0
2014-Oct-28 11:24N 51°52' E 004°16'0 0.0
2014-Oct-28 10:15N 51°52' E 004°16'0 0.0
2014-Oct-28 09:33N 51°52' E 004°16'0 0.0
2014-Oct-28 08:21N 51°52' E 004°16'0 0.0
2014-Oct-28 07:33N 51°52' E 004°16'0 0.0
2014-Oct-28 06:33N 51°52' E 004°16'0 0.0
2014-Oct-28 05:24N 51°52' E 004°16'0 0.0
2014-Oct-28 04:33N 51°52' E 004°16'0 0.0
2014-Oct-28 03:33N 51°52' E 004°16'0 0.0
2014-Oct-28 02:27N 51°52' E 004°16'0 0.0
2014-Oct-28 01:09N 51°52' E 004°16'0 0.0
2014-Oct-27 23:30N 51°52' E 004°16'0 0.0
2014-Oct-27 22:21N 51°52' E 004°16'0 0.0
2014-Oct-27 21:24N 51°52' E 004°16'0 0.0
2014-Oct-27 20:30N 51°52' E 004°16'0 0.0
2014-Oct-27 19:30N 51°52' E 004°16'0 0.0
2014-Oct-27 18:33N 51°52' E 004°16'2 1.6
2014-Oct-27 17:32N 51°53' E 004°19'0 0.3
2014-Oct-27 16:31N 51°53' E 004°18'0 0.0
2014-Oct-27 15:31N 51°53' E 004°18'0 0.0
2014-Oct-27 14:31N 51°53' E 004°18'0 0.0
2014-Oct-27 13:25N 51°53' E 004°18'0 0.0
2014-Oct-27 12:31N 51°53' E 004°18'0 0.0
2014-Oct-27 11:31N 51°53' E 004°18'0 0.0
2014-Oct-27 10:28N 51°53' E 004°18'0 0.0
2014-Oct-27 09:31N 51°53' E 004°18'0 0.0
2014-Oct-27 08:25N 51°53' E 004°18'0 0.0
2014-Oct-27 07:28N 51°53' E 004°18'0 0.0
2014-Oct-27 06:28N 51°53' E 004°18'0 0.0
2014-Oct-27 05:22N 51°53' E 004°18'0 0.0
2014-Oct-27 04:28N 51°53' E 004°18'0 0.0
2014-Oct-27 03:31N 51°53' E 004°18'0 0.0
2014-Oct-27 02:31N 51°53' E 004°18'0 0.0
2014-Oct-27 01:31N 51°53' E 004°18'0 0.0
2014-Oct-27 00:22N 51°53' E 004°18'0 0.0
2014-Oct-26 23:31N 51°53' E 004°18'0 0.0
2014-Oct-26 22:31N 51°53' E 004°18'0 0.0
2014-Oct-26 21:31N 51°53' E 004°18'0 0.0
2014-Oct-26 20:31N 51°53' E 004°18'1 1.2
2014-Oct-26 19:34N 51°54' E 004°17'8 7.7
2014-Oct-26 18:34N 51°58' E 004°07'1010.2
2014-Oct-26 17:34N 52°01' E 003°51'10 9.7
2014-Oct-26 16:31N 52°05' E 003°37'2410.8
2014-Oct-26 14:18N 52°04' E 002°57'40 6.9
2014-Oct-26 08:33N 51°33' E 002°18'1110.7
2014-Oct-26 07:32N 51°24' E 002°08'1111.4
2014-Oct-26 06:33N 51°22' E 002°26'1211.5
2014-Oct-26 05:33N 51°23' E 002°44'1110.6
2014-Oct-26 04:33N 51°24' E 003°01'1211.1
2014-Oct-26 03:29N 51°24' E 003°20'1010.8
2014-Oct-26 02:33N 51°26' E 003°36'8 7.8
2014-Oct-26 01:33N 51°22' E 003°46'8 7.7
2014-Oct-26 00:33N 51°25' E 003°58'7 7.0
2014-Oct-25 23:33N 51°22' E 004°08'7 7.4
2014-Oct-25 22:34N 51°18' E 004°17'6 6.3
2014-Oct-25 21:33N 51°12' E 004°21'3 0.2
2014-Oct-25 02:19N 51°09' E 004°20'2 2.7
2014-Oct-25 01:33N 51°11' E 004°20'4 4.1
2014-Oct-25 00:34N 51°15' E 004°20'9 9.2
2014-Oct-24 23:33N 51°23' E 004°13'9 9.0
2014-Oct-24 22:34N 51°26' E 003°59'1010.0
2014-Oct-24 21:33N 51°22' E 003°44'8 8.2
2014-Oct-24 20:33N 51°25' E 003°32'1010.0
2014-Oct-24 19:32N 51°24' E 003°15'13 8.5
2014-Oct-24 18:04N 51°22' E 002°56'610.7
2014-Oct-24 17:33N 51°21' E 002°47'8 8.0
2014-Oct-24 16:33N 51°22' E 002°34'2 1.7
2014-Oct-24 15:30N 51°24' E 002°34'0 0.0
2014-Oct-24 14:33N 51°24' E 002°34'0 0.0
2014-Oct-24 13:30N 51°24' E 002°34'0 0.0
2014-Oct-24 12:33N 51°24' E 002°34'0 0.0
2014-Oct-24 11:30N 51°24' E 002°34'0 0.0
2014-Oct-24 10:33N 51°24' E 002°34'2 2.5
2014-Oct-24 09:33N 51°22' E 002°32'9 9.5
2014-Oct-24 08:33N 51°18' E 002°18'1010.4
2014-Oct-24 07:34N 51°13' E 002°04'10 9.5
2014-Oct-24 06:33N 51°08' E 001°50'9 9.5
2014-Oct-24 05:33N 51°02' E 001°39'1010.1
2014-Oct-24 04:33N 50°55' E 001°28'  
Track history (hours):
 
Tides and Currents Weather Stations Pressure Air Temp Water Temp Dewpoint Dewpoint Depression Visibility Wind Speed Wind Dir Waves Ship Positions

Oriental Freesia

Last reported at 2014-Nov-01 01:13 UTC. Time now 2014-Nov-01 14:05 UTC.
Position N 50°26' W 000°29'.

Length 134 m; draft 6.9 m.

Type: Ship (hazmat cat A). MMSI: 319349000.

Date/timePositionNaut miles runAvg speedWind from/ knotsBaromVisibWave heightAir tempDewpointWater temp
2014-Nov-01 01:13N 50°26' W 000°29'3111.5
2014-Oct-31 22:33N 50°34' E 000°17'1312.7
2014-Oct-31 21:33N 50°38' E 000°36'1212.3
2014-Oct-31 20:33N 50°45' E 000°52'1211.7
2014-Oct-31 19:33N 50°53' E 001°06'1110.9
2014-Oct-31 18:33N 50°60' E 001°19'1010.1
2014-Oct-31 17:33N 51°06' E 001°31'10 9.9
2014-Oct-31 16:33N 51°13' E 001°44'1111.2
2014-Oct-31 15:33N 51°22' E 001°53'1312.6
2014-Oct-31 14:33N 51°32' E 002°06'1413.5
2014-Oct-31 13:34N 51°42' E 002°21'1413.5
2014-Oct-31 12:33N 51°52' E 002°36'1312.9
2014-Oct-31 11:33N 52°01' E 002°50'1412.3
2014-Oct-31 10:27N 52°04' E 003°12'1011.6
2014-Oct-31 09:33N 52°04' E 003°29'1110.6
2014-Oct-31 08:31N 52°04' E 003°47'8 8.4
2014-Oct-31 07:33N 52°01' E 003°59'9 8.7
2014-Oct-31 06:34N 51°57' E 004°11'5 5.2
2014-Oct-31 05:33N 51°53' E 004°17'0 0.0
2014-Oct-30 23:25N 51°53' E 004°17'0 0.0
2014-Oct-30 22:28N 51°53' E 004°17'0 0.0
2014-Oct-30 13:07N 51°53' E 004°17'0 0.0
2014-Oct-30 10:16N 51°53' E 004°17'0 0.0
2014-Oct-30 08:31N 51°53' E 004°17'0 0.0
2014-Oct-29 19:16N 51°53' E 004°17'0 0.0
2014-Oct-29 18:28N 51°53' E 004°17'0 0.0
2014-Oct-29 11:28N 51°53' E 004°17'0 0.0
2014-Oct-29 10:28N 51°53' E 004°17'0 0.0
2014-Oct-29 09:28N 51°53' E 004°17'0 0.0
2014-Oct-29 08:31N 51°53' E 004°17'0 0.0
2014-Oct-29 07:31N 51°53' E 004°17'0 0.0
2014-Oct-29 01:19N 51°53' E 004°17'0 0.0
2014-Oct-28 23:07N 51°53' E 004°17'0 0.0
2014-Oct-28 16:31N 51°53' E 004°17'0 0.0
2014-Oct-28 13:31N 51°53' E 004°17'1 1.0
2014-Oct-28 12:24N 51°52' E 004°16'0 0.0
2014-Oct-28 11:24N 51°52' E 004°16'0 0.0
2014-Oct-28 10:15N 51°52' E 004°16'0 0.0
2014-Oct-28 09:33N 51°52' E 004°16'0 0.0
2014-Oct-28 08:21N 51°52' E 004°16'0 0.0
2014-Oct-28 07:33N 51°52' E 004°16'0 0.0
2014-Oct-28 06:33N 51°52' E 004°16'0 0.0
2014-Oct-28 05:24N 51°52' E 004°16'0 0.0
2014-Oct-28 04:33N 51°52' E 004°16'0 0.0
2014-Oct-28 03:33N 51°52' E 004°16'0 0.0
2014-Oct-28 02:27N 51°52' E 004°16'0 0.0
2014-Oct-28 01:09N 51°52' E 004°16'0 0.0
2014-Oct-27 23:30N 51°52' E 004°16'0 0.0
2014-Oct-27 22:21N 51°52' E 004°16'0 0.0
2014-Oct-27 21:24N 51°52' E 004°16'0 0.0
2014-Oct-27 20:30N 51°52' E 004°16'0 0.0
2014-Oct-27 19:30N 51°52' E 004°16'0 0.0
2014-Oct-27 18:33N 51°52' E 004°16'2 1.6
2014-Oct-27 17:32N 51°53' E 004°19'0 0.3
2014-Oct-27 16:31N 51°53' E 004°18'0 0.0
2014-Oct-27 15:31N 51°53' E 004°18'0 0.0
2014-Oct-27 14:31N 51°53' E 004°18'0 0.0
2014-Oct-27 13:25N 51°53' E 004°18'0 0.0
2014-Oct-27 12:31N 51°53' E 004°18'0 0.0
2014-Oct-27 11:31N 51°53' E 004°18'0 0.0
2014-Oct-27 10:28N 51°53' E 004°18'0 0.0
2014-Oct-27 09:31N 51°53' E 004°18'0 0.0
2014-Oct-27 08:25N 51°53' E 004°18'0 0.0
2014-Oct-27 07:28N 51°53' E 004°18'0 0.0
2014-Oct-27 06:28N 51°53' E 004°18'0 0.0
2014-Oct-27 05:22N 51°53' E 004°18'0 0.0
2014-Oct-27 04:28N 51°53' E 004°18'0 0.0
2014-Oct-27 03:31N 51°53' E 004°18'0 0.0
2014-Oct-27 02:31N 51°53' E 004°18'0 0.0
2014-Oct-27 01:31N 51°53' E 004°18'0 0.0
2014-Oct-27 00:22N 51°53' E 004°18'0 0.0
2014-Oct-26 23:31N 51°53' E 004°18'0 0.0
2014-Oct-26 22:31N 51°53' E 004°18'0 0.0
2014-Oct-26 21:31N 51°53' E 004°18'0 0.0
2014-Oct-26 20:31N 51°53' E 004°18'1 1.2
2014-Oct-26 19:34N 51°54' E 004°17'8 7.7
2014-Oct-26 18:34N 51°58' E 004°07'1010.2
2014-Oct-26 17:34N 52°01' E 003°51'10 9.7
2014-Oct-26 16:31N 52°05' E 003°37'2410.8
2014-Oct-26 14:18N 52°04' E 002°57'40 6.9
2014-Oct-26 08:33N 51°33' E 002°18'1110.7
2014-Oct-26 07:32N 51°24' E 002°08'1111.4
2014-Oct-26 06:33N 51°22' E 002°26'1211.5
2014-Oct-26 05:33N 51°23' E 002°44'1110.6
2014-Oct-26 04:33N 51°24' E 003°01'1211.1
2014-Oct-26 03:29N 51°24' E 003°20'1010.8
2014-Oct-26 02:33N 51°26' E 003°36'8 7.8
2014-Oct-26 01:33N 51°22' E 003°46'8 7.7
2014-Oct-26 00:33N 51°25' E 003°58'7 7.0
2014-Oct-25 23:33N 51°22' E 004°08'7 7.4
2014-Oct-25 22:34N 51°18' E 004°17'6 6.3
2014-Oct-25 21:33N 51°12' E 004°21'3 0.2
2014-Oct-25 02:19N 51°09' E 004°20'2 2.7
2014-Oct-25 01:33N 51°11' E 004°20'4 4.1
2014-Oct-25 00:34N 51°15' E 004°20'9 9.2
2014-Oct-24 23:33N 51°23' E 004°13'9 9.0
2014-Oct-24 22:34N 51°26' E 003°59'1010.0
2014-Oct-24 21:33N 51°22' E 003°44'8 8.2
2014-Oct-24 20:33N 51°25' E 003°32'1010.0
2014-Oct-24 19:32N 51°24' E 003°15'13 8.5
2014-Oct-24 18:04N 51°22' E 002°56'610.7
2014-Oct-24 17:33N 51°21' E 002°47'8 8.0
2014-Oct-24 16:33N 51°22' E 002°34'2 1.7
2014-Oct-24 15:30N 51°24' E 002°34'0 0.0
2014-Oct-24 14:33N 51°24' E 002°34'0 0.0
2014-Oct-24 13:30N 51°24' E 002°34'0 0.0
2014-Oct-24 12:33N 51°24' E 002°34'0 0.0
2014-Oct-24 11:30N 51°24' E 002°34'0 0.0
2014-Oct-24 10:33N 51°24' E 002°34'2 2.5
2014-Oct-24 09:33N 51°22' E 002°32'9 9.5
2014-Oct-24 08:33N 51°18' E 002°18'1010.4
2014-Oct-24 07:34N 51°13' E 002°04'10 9.5
2014-Oct-24 06:33N 51°08' E 001°50'9 9.5
2014-Oct-24 05:33N 51°02' E 001°39'1010.1
2014-Oct-24 04:33N 50°55' E 001°28'  

Dump ship's entire track history